sensor_id;sensor_type;location;lat;lon;timestamp;temperature;humidity
67890;DHT22;54685;52.082;5.426;2023-07-31T00:00:52;15.70;99.90
67890;DHT22;54685;52.082;5.426;2023-07-31T00:03:19;15.70;99.90
67890;DHT22;54685;52.082;5.426;2023-07-31T00:05:46;15.80;99.90
67890;DHT22;54685;52.082;5.426;2023-07-31T00:08:12;15.80;99.90
67890;DHT22;54685;52.082;5.426;2023-07-31T00:10:39;15.80;99.90
67890;DHT22;54685;52.082;5.426;2023-07-31T00:13:06;15.90;99.90
67890;DHT22;54685;52.082;5.426;2023-07-31T00:15:33;15.80;99.90
67890;DHT22;54685;52.082;5.426;2023-07-31T00:18:00;15.90;99.90
67890;DHT22;54685;52.082;5.426;2023-07-31T00:20:28;15.90;99.90
67890;DHT22;54685;52.082;5.426;2023-07-31T00:22:55;16.00;99.90
67890;DHT22;54685;52.082;5.426;2023-07-31T00:25:22;16.00;99.90
67890;DHT22;54685;52.082;5.426;2023-07-31T00:27:48;16.00;99.90
67890;DHT22;54685;52.082;5.426;2023-07-31T00:30:15;16.00;99.90
67890;DHT22;54685;52.082;5.426;2023-07-31T00:32:43;16.00;99.90
67890;DHT22;54685;52.082;5.426;2023-07-31T00:35:10;16.10;99.90
67890;DHT22;54685;52.082;5.426;2023-07-31T00:37:37;16.00;99.90
67890;DHT22;54685;52.082;5.426;2023-07-31T00:40:04;16.00;99.90
67890;DHT22;54685;52.082;5.426;2023-07-31T00:42:31;16.10;99.90
67890;DHT22;54685;52.082;5.426;2023-07-31T00:44:58;16.20;99.90
67890;DHT22;54685;52.082;5.426;2023-07-31T00:47:25;16.20;99.90
67890;DHT22;54685;52.082;5.426;2023-07-31T00:49:52;16.30;99.90
67890;DHT22;54685;52.082;5.426;2023-07-31T00:52:19;16.30;99.90
67890;DHT22;54685;52.082;5.426;2023-07-31T00:54:47;16.50;99.90
67890;DHT22;54685;52.082;5.426;2023-07-31T00:57:15;16.50;99.90
67890;DHT22;54685;52.082;5.426;2023-07-31T00:59:42;16.50;99.90
67890;DHT22;54685;52.082;5.426;2023-07-31T01:02:09;16.60;99.90
67890;DHT22;54685;52.082;5.426;2023-07-31T01:04:35;16.70;99.90
67890;DHT22;54685;52.082;5.426;2023-07-31T01:07:46;16.80;99.90
67890;DHT22;54685;52.082;5.426;2023-07-31T01:10:21;16.70;99.90
67890;DHT22;54685;52.082;5.426;2023-07-31T01:12:51;16.80;99.90
67890;DHT22;54685;52.082;5.426;2023-07-31T01:15:21;16.80;99.90
67890;DHT22;54685;52.082;5.426;2023-07-31T01:17:47;16.80;99.90
67890;DHT22;54685;52.082;5.426;2023-07-31T01:20:23;16.80;99.90
67890;DHT22;54685;52.082;5.426;2023-07-31T01:25:31;16.80;99.90
67890;DHT22;54685;52.082;5.426;2023-07-31T01:28:09;16.70;99.90
67890;DHT22;54685;52.082;5.426;2023-07-31T01:30:41;16.80;99.90
67890;DHT22;54685;52.082;5.426;2023-07-31T01:33:10;16.80;99.90
67890;DHT22;54685;52.082;5.426;2023-07-31T01:35:37;16.80;99.90
67890;DHT22;54685;52.082;5.426;2023-07-31T01:38:05;16.80;99.90
67890;DHT22;54685;52.082;5.426;2023-07-31T01:40:32;16.80;99.90
67890;DHT22;54685;52.082;5.426;2023-07-31T01:42:58;16.80;99.90
67890;DHT22;54685;52.082;5.426;2023-07-31T01:45:25;16.70;99.90
67890;DHT22;54685;52.082;5.426;2023-07-31T01:47:53;16.70;99.90
67890;DHT22;54685;52.082;5.426;2023-07-31T01:50:20;16.70;99.90
67890;DHT22;54685;52.082;5.426;2023-07-31T01:52:47;16.80;99.90
67890;DHT22;54685;52.082;5.426;2023-07-31T01:55:14;16.70;99.90
67890;DHT22;54685;52.082;5.426;2023-07-31T01:57:42;16.70;99.90
67890;DHT22;54685;52.082;5.426;2023-07-31T02:00:09;16.80;99.90
67890;DHT22;54685;52.082;5.426;2023-07-31T02:02:39;16.80;99.90
67890;DHT22;54685;52.082;5.426;2023-07-31T02:05:06;16.80;99.90
67890;DHT22;54685;52.082;5.426;2023-07-31T02:07:33;16.80;99.90
67890;DHT22;54685;52.082;5.426;2023-07-31T02:10:00;16.70;99.90
67890;DHT22;54685;52.082;5.426;2023-07-31T02:12:27;16.80;99.90
67890;DHT22;54685;52.082;5.426;2023-07-31T02:14:57;16.80;99.90
67890;DHT22;54685;52.082;5.426;2023-07-31T02:17:24;16.70;99.90
67890;DHT22;54685;52.082;5.426;2023-07-31T02:19:51;16.60;99.90
67890;DHT22;54685;52.082;5.426;2023-07-31T02:22:18;16.60;99.90
67890;DHT22;54685;52.082;5.426;2023-07-31T02:24:45;16.60;99.90
67890;DHT22;54685;52.082;5.426;2023-07-31T02:27:12;16.70;99.90
67890;DHT22;54685;52.082;5.426;2023-07-31T02:29:39;16.60;99.90
67890;DHT22;54685;52.082;5.426;2023-07-31T02:32:06;16.60;99.90
67890;DHT22;54685;52.082;5.426;2023-07-31T02:34:33;16.70;99.90
67890;DHT22;54685;52.082;5.426;2023-07-31T02:37:00;16.60;99.90
67890;DHT22;54685;52.082;5.426;2023-07-31T02:39:27;16.70;99.90
67890;DHT22;54685;52.082;5.426;2023-07-31T02:41:54;16.60;99.90
67890;DHT22;54685;52.082;5.426;2023-07-31T02:44:22;16.70;99.90
67890;DHT22;54685;52.082;5.426;2023-07-31T02:46:49;16.60;99.90
67890;DHT22;54685;52.082;5.426;2023-07-31T02:49:16;16.60;99.90
67890;DHT22;54685;52.082;5.426;2023-07-31T02:51:43;16.60;99.90
67890;DHT22;54685;52.082;5.426;2023-07-31T02:54:10;16.70;99.90
67890;DHT22;54685;52.082;5.426;2023-07-31T02:56:37;16.60;99.90
67890;DHT22;54685;52.082;5.426;2023-07-31T02:59:05;16.70;99.90
67890;DHT22;54685;52.082;5.426;2023-07-31T03:01:31;16.70;99.90
67890;DHT22;54685;52.082;5.426;2023-07-31T03:03:59;16.70;99.90
67890;DHT22;54685;52.082;5.426;2023-07-31T03:06:25;16.80;99.90
67890;DHT22;54685;52.082;5.426;2023-07-31T03:08:53;16.70;99.90
67890;DHT22;54685;52.082;5.426;2023-07-31T03:11:20;16.60;99.90
67890;DHT22;54685;52.082;5.426;2023-07-31T03:13:47;16.70;99.90
67890;DHT22;54685;52.082;5.426;2023-07-31T03:16:14;16.60;99.90
67890;DHT22;54685;52.082;5.426;2023-07-31T03:18:41;16.60;99.90
67890;DHT22;54685;52.082;5.426;2023-07-31T03:21:08;16.60;99.90
67890;DHT22;54685;52.082;5.426;2023-07-31T03:23:35;16.60;99.90
67890;DHT22;54685;52.082;5.426;2023-07-31T03:26:05;16.60;99.90
67890;DHT22;54685;52.082;5.426;2023-07-31T03:28:32;16.70;99.90
67890;DHT22;54685;52.082;5.426;2023-07-31T03:30:59;16.60;99.90
67890;DHT22;54685;52.082;5.426;2023-07-31T03:33:26;16.70;99.90
67890;DHT22;54685;52.082;5.426;2023-07-31T03:35:53;16.70;99.90
67890;DHT22;54685;52.082;5.426;2023-07-31T03:38:20;16.70;99.90
67890;DHT22;54685;52.082;5.426;2023-07-31T03:40:47;16.60;99.90
67890;DHT22;54685;52.082;5.426;2023-07-31T03:43:15;16.60;99.90
67890;DHT22;54685;52.082;5.426;2023-07-31T03:45:42;16.70;99.90
67890;DHT22;54685;52.082;5.426;2023-07-31T03:48:09;16.70;99.90
67890;DHT22;54685;52.082;5.426;2023-07-31T03:50:35;16.60;99.90
67890;DHT22;54685;52.082;5.426;2023-07-31T03:53:02;16.70;99.90
67890;DHT22;54685;52.082;5.426;2023-07-31T03:55:29;16.60;99.90
67890;DHT22;54685;52.082;5.426;2023-07-31T03:57:56;16.60;99.90
67890;DHT22;54685;52.082;5.426;2023-07-31T04:00:23;16.60;99.90
67890;DHT22;54685;52.082;5.426;2023-07-31T04:02:49;16.60;99.90
67890;DHT22;54685;52.082;5.426;2023-07-31T04:05:16;16.60;99.90
67890;DHT22;54685;52.082;5.426;2023-07-31T04:07:43;16.70;99.90
67890;DHT22;54685;52.082;5.426;2023-07-31T04:10:10;16.60;99.90
67890;DHT22;54685;52.082;5.426;2023-07-31T04:12:39;16.70;99.90
67890;DHT22;54685;52.082;5.426;2023-07-31T04:15:06;16.70;99.90
67890;DHT22;54685;52.082;5.426;2023-07-31T04:17:33;16.70;99.90
67890;DHT22;54685;52.082;5.426;2023-07-31T04:20:00;16.70;99.90
67890;DHT22;54685;52.082;5.426;2023-07-31T04:22:27;16.60;99.90
67890;DHT22;54685;52.082;5.426;2023-07-31T04:24:54;16.70;99.90
67890;DHT22;54685;52.082;5.426;2023-07-31T04:27:21;16.60;99.90
67890;DHT22;54685;52.082;5.426;2023-07-31T04:29:48;16.70;99.90
67890;DHT22;54685;52.082;5.426;2023-07-31T04:32:15;16.70;99.90
67890;DHT22;54685;52.082;5.426;2023-07-31T04:34:46;16.60;99.90
67890;DHT22;54685;52.082;5.426;2023-07-31T04:37:12;16.60;99.90
67890;DHT22;54685;52.082;5.426;2023-07-31T04:39:39;16.60;99.90
67890;DHT22;54685;52.082;5.426;2023-07-31T04:42:06;16.70;99.90
67890;DHT22;54685;52.082;5.426;2023-07-31T04:44:33;16.60;99.90
67890;DHT22;54685;52.082;5.426;2023-07-31T04:47:00;16.60;99.90
67890;DHT22;54685;52.082;5.426;2023-07-31T04:49:27;16.60;99.90
67890;DHT22;54685;52.082;5.426;2023-07-31T04:51:54;16.60;99.90
67890;DHT22;54685;52.082;5.426;2023-07-31T04:54:20;16.70;99.90
67890;DHT22;54685;52.082;5.426;2023-07-31T04:56:47;16.70;99.90
67890;DHT22;54685;52.082;5.426;2023-07-31T04:59:14;16.70;99.90
67890;DHT22;54685;52.082;5.426;2023-07-31T05:01:41;16.80;99.90
67890;DHT22;54685;52.082;5.426;2023-07-31T05:04:09;16.80;99.90
67890;DHT22;54685;52.082;5.426;2023-07-31T05:06:36;16.70;99.90
67890;DHT22;54685;52.082;5.426;2023-07-31T05:09:03;16.60;99.90
67890;DHT22;54685;52.082;5.426;2023-07-31T05:11:30;16.60;99.90
67890;DHT22;54685;52.082;5.426;2023-07-31T05:13:57;16.70;99.90
67890;DHT22;54685;52.082;5.426;2023-07-31T05:16:24;16.60;99.90
67890;DHT22;54685;52.082;5.426;2023-07-31T05:18:50;16.60;99.90
67890;DHT22;54685;52.082;5.426;2023-07-31T05:21:17;16.50;99.90
67890;DHT22;54685;52.082;5.426;2023-07-31T05:23:44;16.60;99.90
67890;DHT22;54685;52.082;5.426;2023-07-31T05:26:11;16.60;99.90
67890;DHT22;54685;52.082;5.426;2023-07-31T05:28:38;16.50;99.90
67890;DHT22;54685;52.082;5.426;2023-07-31T05:31:06;16.50;99.90
67890;DHT22;54685;52.082;5.426;2023-07-31T05:33:33;16.60;99.90
67890;DHT22;54685;52.082;5.426;2023-07-31T05:36:00;16.40;99.90
67890;DHT22;54685;52.082;5.426;2023-07-31T05:38:27;16.40;99.90
67890;DHT22;54685;52.082;5.426;2023-07-31T05:40:54;16.30;99.90
67890;DHT22;54685;52.082;5.426;2023-07-31T05:43:20;16.50;99.90
67890;DHT22;54685;52.082;5.426;2023-07-31T05:45:47;16.50;99.90
67890;DHT22;54685;52.082;5.426;2023-07-31T05:48:14;16.40;99.90
67890;DHT22;54685;52.082;5.426;2023-07-31T05:50:42;16.30;99.90
67890;DHT22;54685;52.082;5.426;2023-07-31T05:53:09;16.30;99.90
67890;DHT22;54685;52.082;5.426;2023-07-31T05:55:36;16.20;99.90
67890;DHT22;54685;52.082;5.426;2023-07-31T05:58:03;16.30;99.90
67890;DHT22;54685;52.082;5.426;2023-07-31T06:00:30;16.30;99.90
67890;DHT22;54685;52.082;5.426;2023-07-31T06:02:57;16.30;99.90
67890;DHT22;54685;52.082;5.426;2023-07-31T06:05:24;16.40;99.90
67890;DHT22;54685;52.082;5.426;2023-07-31T06:07:51;16.40;99.90
67890;DHT22;54685;52.082;5.426;2023-07-31T06:10:18;16.40;99.90
67890;DHT22;54685;52.082;5.426;2023-07-31T06:12:45;16.40;99.90
67890;DHT22;54685;52.082;5.426;2023-07-31T06:15:12;16.30;99.90
67890;DHT22;54685;52.082;5.426;2023-07-31T06:17:38;16.30;99.90
67890;DHT22;54685;52.082;5.426;2023-07-31T06:20:06;16.40;99.90
67890;DHT22;54685;52.082;5.426;2023-07-31T06:22:33;16.40;99.90
67890;DHT22;54685;52.082;5.426;2023-07-31T06:25:00;16.30;99.90
67890;DHT22;54685;52.082;5.426;2023-07-31T06:27:27;16.40;99.90
67890;DHT22;54685;52.082;5.426;2023-07-31T06:29:53;16.40;99.90
67890;DHT22;54685;52.082;5.426;2023-07-31T06:32:20;16.30;99.90
67890;DHT22;54685;52.082;5.426;2023-07-31T06:34:47;16.40;99.90
67890;DHT22;54685;52.082;5.426;2023-07-31T06:37:14;16.40;99.90
67890;DHT22;54685;52.082;5.426;2023-07-31T06:39:41;16.40;99.90
67890;DHT22;54685;52.082;5.426;2023-07-31T06:42:08;16.50;99.90
67890;DHT22;54685;52.082;5.426;2023-07-31T06:44:35;16.50;99.90
67890;DHT22;54685;52.082;5.426;2023-07-31T06:47:02;16.50;99.90
67890;DHT22;54685;52.082;5.426;2023-07-31T06:49:29;16.40;99.90
67890;DHT22;54685;52.082;5.426;2023-07-31T06:51:56;16.50;99.90
67890;DHT22;54685;52.082;5.426;2023-07-31T06:54:23;16.50;99.90
67890;DHT22;54685;52.082;5.426;2023-07-31T06:56:50;16.50;99.90
67890;DHT22;54685;52.082;5.426;2023-07-31T06:59:16;16.60;99.90
67890;DHT22;54685;52.082;5.426;2023-07-31T07:01:43;16.60;99.90
67890;DHT22;54685;52.082;5.426;2023-07-31T07:04:10;16.60;99.90
67890;DHT22;54685;52.082;5.426;2023-07-31T07:06:37;16.70;99.90
67890;DHT22;54685;52.082;5.426;2023-07-31T07:09:04;16.70;99.90
67890;DHT22;54685;52.082;5.426;2023-07-31T07:11:32;16.70;99.90
67890;DHT22;54685;52.082;5.426;2023-07-31T07:13:59;16.70;99.90
67890;DHT22;54685;52.082;5.426;2023-07-31T07:16:29;16.70;99.90
67890;DHT22;54685;52.082;5.426;2023-07-31T07:18:56;16.80;99.90
67890;DHT22;54685;52.082;5.426;2023-07-31T07:21:31;16.80;99.90
67890;DHT22;54685;52.082;5.426;2023-07-31T07:23:57;16.90;99.90
67890;DHT22;54685;52.082;5.426;2023-07-31T07:26:24;16.90;99.90
67890;DHT22;54685;52.082;5.426;2023-07-31T07:28:51;16.90;99.90
67890;DHT22;54685;52.082;5.426;2023-07-31T07:31:18;16.80;99.90
67890;DHT22;54685;52.082;5.426;2023-07-31T07:33:45;16.80;99.90
67890;DHT22;54685;52.082;5.426;2023-07-31T07:36:12;16.80;99.90
67890;DHT22;54685;52.082;5.426;2023-07-31T07:38:40;16.90;99.90
67890;DHT22;54685;52.082;5.426;2023-07-31T07:41:07;16.90;99.90
67890;DHT22;54685;52.082;5.426;2023-07-31T07:43:34;16.80;99.90
67890;DHT22;54685;52.082;5.426;2023-07-31T07:46:01;17.00;99.90
67890;DHT22;54685;52.082;5.426;2023-07-31T07:48:28;17.00;99.90
67890;DHT22;54685;52.082;5.426;2023-07-31T07:50:55;16.90;99.90
67890;DHT22;54685;52.082;5.426;2023-07-31T07:53:22;17.00;99.90
67890;DHT22;54685;52.082;5.426;2023-07-31T07:55:49;17.00;99.90
67890;DHT22;54685;52.082;5.426;2023-07-31T07:58:15;17.00;99.90
67890;DHT22;54685;52.082;5.426;2023-07-31T08:00:49;17.10;99.90
67890;DHT22;54685;52.082;5.426;2023-07-31T08:03:16;17.20;99.90
67890;DHT22;54685;52.082;5.426;2023-07-31T08:05:44;17.10;99.90
67890;DHT22;54685;52.082;5.426;2023-07-31T08:08:15;17.10;99.90
67890;DHT22;54685;52.082;5.426;2023-07-31T08:10:44;17.10;99.90
67890;DHT22;54685;52.082;5.426;2023-07-31T08:13:11;17.20;99.90
67890;DHT22;54685;52.082;5.426;2023-07-31T08:15:41;17.30;99.90
67890;DHT22;54685;52.082;5.426;2023-07-31T08:18:08;17.20;99.90
67890;DHT22;54685;52.082;5.426;2023-07-31T08:20:35;17.30;99.90
67890;DHT22;54685;52.082;5.426;2023-07-31T08:23:01;17.30;99.90
67890;DHT22;54685;52.082;5.426;2023-07-31T08:25:28;17.30;99.90
67890;DHT22;54685;52.082;5.426;2023-07-31T08:27:55;17.30;99.90
67890;DHT22;54685;52.082;5.426;2023-07-31T08:30:22;17.30;99.90
67890;DHT22;54685;52.082;5.426;2023-07-31T08:32:49;17.40;99.90
67890;DHT22;54685;52.082;5.426;2023-07-31T08:35:16;17.50;99.90
67890;DHT22;54685;52.082;5.426;2023-07-31T08:37:43;17.50;99.90
67890;DHT22;54685;52.082;5.426;2023-07-31T08:40:10;17.60;99.90
67890;DHT22;54685;52.082;5.426;2023-07-31T08:42:44;17.50;99.90
67890;DHT22;54685;52.082;5.426;2023-07-31T08:45:16;17.50;99.90
67890;DHT22;54685;52.082;5.426;2023-07-31T08:47:46;17.60;99.90
67890;DHT22;54685;52.082;5.426;2023-07-31T08:50:16;17.60;99.90
67890;DHT22;54685;52.082;5.426;2023-07-31T08:52:43;17.60;99.90
67890;DHT22;54685;52.082;5.426;2023-07-31T08:55:10;17.60;99.90
67890;DHT22;54685;52.082;5.426;2023-07-31T08:57:38;17.60;99.90
67890;DHT22;54685;52.082;5.426;2023-07-31T09:00:07;17.70;99.90
67890;DHT22;54685;52.082;5.426;2023-07-31T09:02:38;17.70;99.90
67890;DHT22;54685;52.082;5.426;2023-07-31T09:05:08;17.60;99.90
67890;DHT22;54685;52.082;5.426;2023-07-31T09:07:35;17.60;99.90
67890;DHT22;54685;52.082;5.426;2023-07-31T09:10:03;17.70;99.90
67890;DHT22;54685;52.082;5.426;2023-07-31T09:12:31;17.70;99.90
67890;DHT22;54685;52.082;5.426;2023-07-31T09:14:58;17.70;99.90
67890;DHT22;54685;52.082;5.426;2023-07-31T09:17:32;17.80;99.90
67890;DHT22;54685;52.082;5.426;2023-07-31T09:20:17;17.70;99.90
67890;DHT22;54685;52.082;5.426;2023-07-31T09:22:45;17.70;99.90
67890;DHT22;54685;52.082;5.426;2023-07-31T09:25:22;17.70;99.90
67890;DHT22;54685;52.082;5.426;2023-07-31T09:27:52;17.70;99.90
67890;DHT22;54685;52.082;5.426;2023-07-31T09:30:20;17.70;99.90
67890;DHT22;54685;52.082;5.426;2023-07-31T09:32:48;17.70;99.90
67890;DHT22;54685;52.082;5.426;2023-07-31T09:35:27;17.60;99.90
67890;DHT22;54685;52.082;5.426;2023-07-31T09:38:06;17.70;99.90
67890;DHT22;54685;52.082;5.426;2023-07-31T09:40:35;17.70;99.90
67890;DHT22;54685;52.082;5.426;2023-07-31T09:43:07;17.80;99.90
67890;DHT22;54685;52.082;5.426;2023-07-31T09:45:39;17.80;99.90
67890;DHT22;54685;52.082;5.426;2023-07-31T09:48:09;17.80;99.90
67890;DHT22;54685;52.082;5.426;2023-07-31T09:50:38;17.90;99.90
67890;DHT22;54685;52.082;5.426;2023-07-31T09:53:06;18.00;99.90
67890;DHT22;54685;52.082;5.426;2023-07-31T09:55:36;18.00;99.90
67890;DHT22;54685;52.082;5.426;2023-07-31T09:58:05;18.00;99.90
67890;DHT22;54685;52.082;5.426;2023-07-31T10:00:32;18.00;99.90
67890;DHT22;54685;52.082;5.426;2023-07-31T10:03:01;18.00;99.90
67890;DHT22;54685;52.082;5.426;2023-07-31T10:05:50;18.10;99.90
67890;DHT22;54685;52.082;5.426;2023-07-31T10:08:20;18.20;99.90
67890;DHT22;54685;52.082;5.426;2023-07-31T10:10:48;18.20;99.90
67890;DHT22;54685;52.082;5.426;2023-07-31T10:13:15;18.20;99.90
67890;DHT22;54685;52.082;5.426;2023-07-31T10:15:43;18.20;99.90
67890;DHT22;54685;52.082;5.426;2023-07-31T10:18:10;18.20;99.90
67890;DHT22;54685;52.082;5.426;2023-07-31T10:20:38;18.30;99.90
67890;DHT22;54685;52.082;5.426;2023-07-31T10:23:06;18.30;99.90
67890;DHT22;54685;52.082;5.426;2023-07-31T10:25:34;18.30;99.90
67890;DHT22;54685;52.082;5.426;2023-07-31T10:28:01;18.30;99.90
67890;DHT22;54685;52.082;5.426;2023-07-31T10:30:31;18.30;99.90
67890;DHT22;54685;52.082;5.426;2023-07-31T10:32:59;18.30;99.90
67890;DHT22;54685;52.082;5.426;2023-07-31T10:35:28;18.30;99.90
67890;DHT22;54685;52.082;5.426;2023-07-31T10:38:12;18.20;99.90
67890;DHT22;54685;52.082;5.426;2023-07-31T10:40:39;18.30;99.90
67890;DHT22;54685;52.082;5.426;2023-07-31T10:43:07;18.30;99.90
67890;DHT22;54685;52.082;5.426;2023-07-31T10:45:38;18.20;99.90
67890;DHT22;54685;52.082;5.426;2023-07-31T10:48:15;18.30;99.90
67890;DHT22;54685;52.082;5.426;2023-07-31T10:50:56;18.40;99.90
67890;DHT22;54685;52.082;5.426;2023-07-31T10:53:31;18.40;99.90
67890;DHT22;54685;52.082;5.426;2023-07-31T10:56:00;18.50;99.90
67890;DHT22;54685;52.082;5.426;2023-07-31T10:58:27;18.50;99.90
67890;DHT22;54685;52.082;5.426;2023-07-31T11:01:02;18.60;99.90
67890;DHT22;54685;52.082;5.426;2023-07-31T11:03:45;18.60;99.90
67890;DHT22;54685;52.082;5.426;2023-07-31T11:06:13;18.60;99.90
67890;DHT22;54685;52.082;5.426;2023-07-31T11:08:49;18.60;99.90
67890;DHT22;54685;52.082;5.426;2023-07-31T11:11:17;18.60;99.90
67890;DHT22;54685;52.082;5.426;2023-07-31T11:13:51;18.70;99.90
67890;DHT22;54685;52.082;5.426;2023-07-31T11:16:20;18.60;99.90
67890;DHT22;54685;52.082;5.426;2023-07-31T11:18:48;18.60;99.90
67890;DHT22;54685;52.082;5.426;2023-07-31T11:21:20;18.60;99.90
67890;DHT22;54685;52.082;5.426;2023-07-31T11:23:52;18.50;99.90
67890;DHT22;54685;52.082;5.426;2023-07-31T11:26:20;18.50;99.90
67890;DHT22;54685;52.082;5.426;2023-07-31T11:28:48;18.50;99.90
67890;DHT22;54685;52.082;5.426;2023-07-31T11:31:16;18.40;99.90
67890;DHT22;54685;52.082;5.426;2023-07-31T11:33:43;18.50;99.90
67890;DHT22;54685;52.082;5.426;2023-07-31T11:36:20;18.50;99.90
67890;DHT22;54685;52.082;5.426;2023-07-31T11:38:47;18.40;99.90
67890;DHT22;54685;52.082;5.426;2023-07-31T11:41:16;18.50;99.90
67890;DHT22;54685;52.082;5.426;2023-07-31T11:43:44;18.50;99.90
67890;DHT22;54685;52.082;5.426;2023-07-31T11:46:13;18.50;99.90
67890;DHT22;54685;52.082;5.426;2023-07-31T11:48:41;18.50;99.90
67890;DHT22;54685;52.082;5.426;2023-07-31T11:51:10;18.50;99.90
67890;DHT22;54685;52.082;5.426;2023-07-31T11:53:56;18.50;99.90
67890;DHT22;54685;52.082;5.426;2023-07-31T11:56:24;18.50;99.90
67890;DHT22;54685;52.082;5.426;2023-07-31T11:59:01;18.60;99.90
67890;DHT22;54685;52.082;5.426;2023-07-31T12:01:30;18.60;99.90
67890;DHT22;54685;52.082;5.426;2023-07-31T12:03:57;18.70;99.90
67890;DHT22;54685;52.082;5.426;2023-07-31T12:06:37;18.60;99.90
67890;DHT22;54685;52.082;5.426;2023-07-31T12:09:05;18.70;99.90
67890;DHT22;54685;52.082;5.426;2023-07-31T12:11:43;18.60;99.90
67890;DHT22;54685;52.082;5.426;2023-07-31T12:14:27;18.70;99.90
67890;DHT22;54685;52.082;5.426;2023-07-31T12:17:00;18.70;99.90
67890;DHT22;54685;52.082;5.426;2023-07-31T12:19:28;18.80;99.90
67890;DHT22;54685;52.082;5.426;2023-07-31T12:22:01;18.70;99.90
67890;DHT22;54685;52.082;5.426;2023-07-31T12:24:27;18.80;99.90
67890;DHT22;54685;52.082;5.426;2023-07-31T12:26:54;18.80;99.90
67890;DHT22;54685;52.082;5.426;2023-07-31T12:29:22;18.80;99.90
67890;DHT22;54685;52.082;5.426;2023-07-31T12:31:49;18.80;99.90
67890;DHT22;54685;52.082;5.426;2023-07-31T12:34:17;18.70;99.90
67890;DHT22;54685;52.082;5.426;2023-07-31T12:36:45;18.80;99.90
67890;DHT22;54685;52.082;5.426;2023-07-31T12:39:12;18.80;99.90
67890;DHT22;54685;52.082;5.426;2023-07-31T12:41:39;18.80;99.90
67890;DHT22;54685;52.082;5.426;2023-07-31T12:44:06;18.90;99.90
67890;DHT22;54685;52.082;5.426;2023-07-31T12:46:36;18.90;99.90
67890;DHT22;54685;52.082;5.426;2023-07-31T12:49:04;18.90;99.90
67890;DHT22;54685;52.082;5.426;2023-07-31T12:51:31;19.00;99.90
67890;DHT22;54685;52.082;5.426;2023-07-31T12:53:58;18.90;99.90
67890;DHT22;54685;52.082;5.426;2023-07-31T12:56:25;18.90;99.90
67890;DHT22;54685;52.082;5.426;2023-07-31T12:58:51;18.90;99.90
67890;DHT22;54685;52.082;5.426;2023-07-31T13:01:18;18.90;99.90
67890;DHT22;54685;52.082;5.426;2023-07-31T13:03:45;18.90;99.90
67890;DHT22;54685;52.082;5.426;2023-07-31T13:06:12;18.90;99.90
67890;DHT22;54685;52.082;5.426;2023-07-31T13:08:39;18.80;99.90
67890;DHT22;54685;52.082;5.426;2023-07-31T13:11:05;18.90;99.90
67890;DHT22;54685;52.082;5.426;2023-07-31T13:13:32;19.00;99.90
67890;DHT22;54685;52.082;5.426;2023-07-31T13:15:59;19.10;99.90
67890;DHT22;54685;52.082;5.426;2023-07-31T13:18:26;19.10;99.90
67890;DHT22;54685;52.082;5.426;2023-07-31T13:20:53;19.20;99.90
67890;DHT22;54685;52.082;5.426;2023-07-31T13:23:20;19.30;99.90
67890;DHT22;54685;52.082;5.426;2023-07-31T13:25:47;19.40;99.90
67890;DHT22;54685;52.082;5.426;2023-07-31T13:28:14;19.30;99.90
67890;DHT22;54685;52.082;5.426;2023-07-31T13:30:41;19.30;99.90
67890;DHT22;54685;52.082;5.426;2023-07-31T13:33:08;19.30;99.90
67890;DHT22;54685;52.082;5.426;2023-07-31T13:35:55;19.40;99.90
67890;DHT22;54685;52.082;5.426;2023-07-31T13:38:24;19.40;99.90
67890;DHT22;54685;52.082;5.426;2023-07-31T13:40:51;19.30;99.90
67890;DHT22;54685;52.082;5.426;2023-07-31T13:43:18;19.20;99.90
67890;DHT22;54685;52.082;5.426;2023-07-31T13:45:45;19.10;99.90
67890;DHT22;54685;52.082;5.426;2023-07-31T13:48:12;19.00;99.90
67890;DHT22;54685;52.082;5.426;2023-07-31T13:50:39;19.00;99.90
67890;DHT22;54685;52.082;5.426;2023-07-31T13:53:05;19.10;99.90
67890;DHT22;54685;52.082;5.426;2023-07-31T13:55:32;19.00;99.90
67890;DHT22;54685;52.082;5.426;2023-07-31T13:57:59;19.10;99.90
67890;DHT22;54685;52.082;5.426;2023-07-31T14:00:26;19.00;99.90
67890;DHT22;54685;52.082;5.426;2023-07-31T14:02:55;18.90;99.90
67890;DHT22;54685;52.082;5.426;2023-07-31T14:05:22;18.90;99.90
67890;DHT22;54685;52.082;5.426;2023-07-31T14:07:48;18.80;99.90
67890;DHT22;54685;52.082;5.426;2023-07-31T14:10:15;18.80;99.90
67890;DHT22;54685;52.082;5.426;2023-07-31T14:12:42;18.80;99.90
67890;DHT22;54685;52.082;5.426;2023-07-31T14:15:10;18.80;99.90
67890;DHT22;54685;52.082;5.426;2023-07-31T14:17:37;18.80;99.90
67890;DHT22;54685;52.082;5.426;2023-07-31T14:20:04;18.90;99.90
67890;DHT22;54685;52.082;5.426;2023-07-31T14:22:32;18.90;99.90
67890;DHT22;54685;52.082;5.426;2023-07-31T14:25:01;18.80;99.90
67890;DHT22;54685;52.082;5.426;2023-07-31T14:27:28;18.70;99.90
67890;DHT22;54685;52.082;5.426;2023-07-31T14:29:54;18.90;99.90
67890;DHT22;54685;52.082;5.426;2023-07-31T14:32:22;18.90;99.90
67890;DHT22;54685;52.082;5.426;2023-07-31T14:34:51;18.90;99.90
67890;DHT22;54685;52.082;5.426;2023-07-31T14:37:18;18.90;99.90
67890;DHT22;54685;52.082;5.426;2023-07-31T14:39:45;18.90;99.90
67890;DHT22;54685;52.082;5.426;2023-07-31T14:42:12;18.90;99.90
67890;DHT22;54685;52.082;5.426;2023-07-31T14:44:39;18.90;99.90
67890;DHT22;54685;52.082;5.426;2023-07-31T14:47:05;18.80;99.90
67890;DHT22;54685;52.082;5.426;2023-07-31T14:49:32;18.80;99.90
67890;DHT22;54685;52.082;5.426;2023-07-31T14:51:59;18.80;99.90
67890;DHT22;54685;52.082;5.426;2023-07-31T14:54:26;18.90;99.90
67890;DHT22;54685;52.082;5.426;2023-07-31T14:56:52;18.90;99.90
67890;DHT22;54685;52.082;5.426;2023-07-31T14:59:19;18.80;99.90
67890;DHT22;54685;52.082;5.426;2023-07-31T15:01:46;18.80;99.90
67890;DHT22;54685;52.082;5.426;2023-07-31T15:04:13;18.70;99.90
67890;DHT22;54685;52.082;5.426;2023-07-31T15:06:40;18.80;99.90
67890;DHT22;54685;52.082;5.426;2023-07-31T15:09:08;18.70;99.90
67890;DHT22;54685;52.082;5.426;2023-07-31T15:11:34;18.80;99.90
67890;DHT22;54685;52.082;5.426;2023-07-31T15:14:01;18.80;99.90
67890;DHT22;54685;52.082;5.426;2023-07-31T15:16:29;18.70;99.90
67890;DHT22;54685;52.082;5.426;2023-07-31T15:18:58;18.70;99.90
67890;DHT22;54685;52.082;5.426;2023-07-31T15:21:24;18.70;99.90
67890;DHT22;54685;52.082;5.426;2023-07-31T15:23:51;18.80;99.90
67890;DHT22;54685;52.082;5.426;2023-07-31T15:26:18;18.70;99.90
67890;DHT22;54685;52.082;5.426;2023-07-31T15:28:50;18.80;99.90
67890;DHT22;54685;52.082;5.426;2023-07-31T15:31:21;18.80;99.90
67890;DHT22;54685;52.082;5.426;2023-07-31T15:33:51;18.70;99.90
67890;DHT22;54685;52.082;5.426;2023-07-31T15:36:19;18.60;99.90
67890;DHT22;54685;52.082;5.426;2023-07-31T15:38:46;18.70;99.90